Terminal Aerodrome Forecast
Issued by NWS Norman, OK

Home | Current Version | Previous Version | Text Only | Print | Product List | Glossary On
Versions: 1 2 3 4 5 6 7 8 9 10 11 12 13 14 15 16 17 18 19 20 21 22 23 24 25 26 27 28 29 30 31 32 33 34 35 36 37 38 39 40
000
FTUS44 KOUN 060836 AAA
TAFSPS
TAF AMD
KSPS 060836Z 0609/0706 06007KT 1/4SM FG VV001
      TEMPO 0609/0610 1/2SM FG BKN002
     FM061000 03010KT 4SM BR BKN003
     FM061200 02013KT 5SM BR SCT006 BKN010
     FM061400 01017G27KT P6SM SCT010 BKN150
     FM070000 03006KT P6SM BKN250=

USA.gov is the U.S. government's official web portal to all federal, state and local government web resources and services.